Pagrindinis puslapis
METAR-TAF:

METAR-TAF

Oro uostai :

Kristiansandas, Norvegija

platuma: 58-12N, ilguma: 008-05E, Aukštis: 1 m

Dabartinis oras

Ataskaita buvo paskelbta 46 minutes, ne 22:20 UTC
Vėjas 12 kt iš Pietų/Pietvakarių
Temperatūra 16°C
Drėgmė 77%
Slėgis 1016 hPa
Matomumas 10 km arba daugiau
Mažai debesys ne aukštis 2000 ft, aukštai iškilę kamuoliniai debesys.
Išsisklaidę debesys ne aukštis 2300 ft

METAR: ENCN 022220Z 20012KT 9999 FEW020TCU SCT023 16/12 Q1016

Laikas: 01:06 (23:06 UTC)

Prognozė

Ataskaita buvo paskelbta 9 valandos ir 6 minutes, ne 14:00 UTC
Prognozė galioja nuo 02 metu 15 UTC su 02 metu 21 UTC
Vėjas 15 kt iš Pietų/Pietvakarių
Matomumas 10 km arba daugiau
Išsisklaidę debesys ne aukštis 2500 ft
Laikinai
nuo 02 metu 19 UTC su 02 metu 21 UTC
Matomumas: 4000 m
Su prošvaistėmis ne aukštis 1000 ft
Mažai debesys ne aukštis 2500 ft, Liūtiniai kamuoliniai debesys.
lietus

TAF: ENCN 021400Z 0215/0221 20015KT 9999 SCT025 TEMPO 0219/0221 4000 SHRA BKN010 FEW025CB

Orai ataskaitas ir orų prognozės (METAR, TAF).

turimą stotys yra geltonos ir raudonos taškus žemėlapyje.

Perkelti pele per norėdami pamatyti stoties vardą.

Tada spustelėkite, norėdami matyti oro stebėjimo ir prognozės.

Norėdami pakeisti žemėlapį: spustelėkite ant žalios mygtukų su juodo kryžiaus žemyn,; žalią mygtuką su brūkšneliu, jei norite nutolinti; arba žalių rodyklių gretimoms žemėlapius.


METAR-TAF: